FDX742 KDEN-KELP
Flight info
| Callsign | FDX742 |
|---|---|
| Flight time | N/A |
| Altitude | 37000 |
| Route | SABTH2 JOPLN CME SAMMR3 |
| Aircraft | MD11/H-SDFGHIRWXY/LB1D1 |
Departure
| Time | N/A |
|---|---|
| Airport | Denver International Airport (KDEN) |
Arrival
| Time | 2026-05-07 20:14 |
|---|---|
| Airport | El Paso International Airport (KELP) |
| Time | Latitude | Longitude | Altitude | Speed | Heading |
|---|---|---|---|---|---|
| 2026-05-07 19:57 | 32.56617 | -105.23942 | 31459 ft | 451 kts | 216° |
| 2026-05-07 19:57 | 32.53893 | -105.25887 | 30584 ft | 454 kts | 215° |
| 2026-05-07 19:58 | 32.51216 | -105.27792 | 29720 ft | 453 kts | 213° |
| 2026-05-07 19:58 | 32.48426 | -105.29775 | 28896 ft | 449 kts | 213° |
| 2026-05-07 19:58 | 32.45725 | -105.31687 | 27628 ft | 454 kts | 213° |
| 2026-05-07 19:58 | 32.42954 | -105.33650 | 26849 ft | 458 kts | 213° |
| 2026-05-07 19:59 | 32.40004 | -105.35731 | 26097 ft | 460 kts | 213° |
| 2026-05-07 19:59 | 32.37225 | -105.37694 | 25411 ft | 457 kts | 213° |
| 2026-05-07 19:59 | 32.34515 | -105.39609 | 24703 ft | 452 kts | 213° |
| 2026-05-07 19:59 | 32.31849 | -105.41495 | 23956 ft | 447 kts | 213° |
| 2026-05-07 20:00 | 32.29198 | -105.43372 | 23216 ft | 443 kts | 213° |
| 2026-05-07 20:00 | 32.26545 | -105.45249 | 22472 ft | 441 kts | 213° |
| 2026-05-07 20:00 | 32.23953 | -105.47085 | 21759 ft | 439 kts | 213° |
| 2026-05-07 20:00 | 32.21321 | -105.48952 | 21039 ft | 438 kts | 213° |
| 2026-05-07 20:01 | 32.18736 | -105.50783 | 20330 ft | 437 kts | 213° |
| 2026-05-07 20:01 | 32.16127 | -105.52632 | 19619 ft | 435 kts | 213° |
| 2026-05-07 20:01 | 32.13615 | -105.54611 | 18901 ft | 433 kts | 219° |
| 2026-05-07 20:01 | 32.11293 | -105.56854 | 18190 ft | 431 kts | 222° |
| 2026-05-07 20:02 | 32.09020 | -105.59147 | 17485 ft | 430 kts | 222° |
| 2026-05-07 20:02 | 32.06728 | -105.61443 | 16790 ft | 428 kts | 221° |
| 2026-05-07 20:02 | 32.04480 | -105.63680 | 16123 ft | 424 kts | 221° |
| 2026-05-07 20:02 | 32.02247 | -105.65893 | 15443 ft | 419 kts | 220° |
| 2026-05-07 20:03 | 32.00032 | -105.68100 | 14731 ft | 414 kts | 221° |
| 2026-05-07 20:03 | 31.97976 | -105.70484 | 14044 ft | 410 kts | 227° |
| 2026-05-07 20:03 | 31.96231 | -105.73105 | 13463 ft | 407 kts | 235° |
| 2026-05-07 20:03 | 31.94733 | -105.75964 | 12986 ft | 405 kts | 238° |
| 2026-05-07 20:04 | 31.93305 | -105.78786 | 12587 ft | 405 kts | 238° |
| 2026-05-07 20:04 | 31.91854 | -105.81638 | 12243 ft | 405 kts | 238° |
| 2026-05-07 20:04 | 31.90396 | -105.84488 | 11876 ft | 403 kts | 238° |
| 2026-05-07 20:04 | 31.89014 | -105.87271 | 11589 ft | 386 kts | 241° |
| 2026-05-07 20:05 | 31.87937 | -105.90080 | 11314 ft | 371 kts | 249° |
| 2026-05-07 20:05 | 31.87246 | -105.92982 | 11085 ft | 356 kts | 258° |
| 2026-05-07 20:05 | 31.86998 | -105.95816 | 10936 ft | 340 kts | 266° |
| 2026-05-07 20:05 | 31.86938 | -105.98495 | 10812 ft | 325 kts | 267° |
| 2026-05-07 20:06 | 31.86877 | -106.01161 | 10539 ft | 315 kts | 267° |
| 2026-05-07 20:06 | 31.86803 | -106.03690 | 10281 ft | 305 kts | 266° |
| 2026-05-07 20:06 | 31.86724 | -106.06146 | 10068 ft | 296 kts | 266° |
| 2026-05-07 20:06 | 31.86637 | -106.08643 | 9719 ft | 292 kts | 266° |
| 2026-05-07 20:07 | 31.86521 | -106.10970 | 9619 ft | 281 kts | 261° |
| 2026-05-07 20:07 | 31.86105 | -106.13173 | 9503 ft | 271 kts | 249° |
| 2026-05-07 20:07 | 31.85321 | -106.15138 | 9219 ft | 262 kts | 239° |
| 2026-05-07 20:07 | 31.84410 | -106.16939 | 8993 ft | 252 kts | 238° |
| 2026-05-07 20:08 | 31.83536 | -106.18675 | 8789 ft | 240 kts | 239° |
| 2026-05-07 20:08 | 31.82713 | -106.20346 | 8600 ft | 234 kts | 239° |
| 2026-05-07 20:08 | 31.81926 | -106.21976 | 8399 ft | 226 kts | 239° |
| 2026-05-07 20:08 | 31.81170 | -106.23562 | 8189 ft | 222 kts | 239° |
| 2026-05-07 20:09 | 31.80402 | -106.25172 | 7972 ft | 222 kts | 240° |
| 2026-05-07 20:09 | 31.79649 | -106.26760 | 7756 ft | 222 kts | 240° |
| 2026-05-07 20:09 | 31.78893 | -106.28352 | 7528 ft | 221 kts | 240° |
| 2026-05-07 20:10 | 31.77478 | -106.31332 | 7110 ft | 193 kts | 239° |
| 2026-05-07 20:10 | 31.76834 | -106.32686 | 6924 ft | 193 kts | 239° |
| 2026-05-07 20:10 | 31.76177 | -106.34064 | 6742 ft | 195 kts | 239° |
| 2026-05-07 20:10 | 31.75503 | -106.35474 | 6144 ft | 198 kts | 239° |
| 2026-05-07 20:11 | 31.74862 | -106.36821 | 5894 ft | 180 kts | 240° |
| 2026-05-07 20:11 | 31.74241 | -106.38126 | 5964 ft | 187 kts | 240° |
| 2026-05-07 20:11 | 31.73605 | -106.39484 | 5873 ft | 197 kts | 244° |
| 2026-05-07 20:11 | 31.73293 | -106.41067 | 5291 ft | 201 kts | 273° |
| 2026-05-07 20:12 | 31.73657 | -106.42537 | 5119 ft | 176 kts | 303° |
| 2026-05-07 20:12 | 31.74483 | -106.43600 | 5182 ft | 178 kts | 327° |
| 2026-05-07 20:12 | 31.75602 | -106.44192 | 5134 ft | 176 kts | 351° |
| 2026-05-07 20:12 | 31.76817 | -106.44245 | 5067 ft | 174 kts | 8° |
| 2026-05-07 20:13 | 31.77890 | -106.43690 | 4923 ft | 167 kts | 47° |
| 2026-05-07 20:13 | 31.78598 | -106.42601 | 4717 ft | 171 kts | 59° |
| 2026-05-07 20:13 | 31.79201 | -106.41411 | 4397 ft | 172 kts | 56° |
| 2026-05-07 20:13 | 31.79910 | -106.40318 | 4017 ft | 165 kts | 51° |
| 2026-05-07 20:14 | 31.80638 | -106.39307 | 3932 ft | 153 kts | 50° |
| 2026-05-07 20:14 | 31.81151 | -106.38591 | 3938 ft | 72 kts | 50° |
| 2026-05-07 20:14 | 31.81436 | -106.38195 | 3941 ft | 54 kts | 51° |
| 2026-05-07 20:14 | 31.81543 | -106.38042 | 3943 ft | 7 kts | 56° |
| 2026-05-07 20:15 | 31.81543 | -106.37983 | 3944 ft | 8 kts | 124° |
| 2026-05-07 20:15 | 31.81501 | -106.37935 | 3944 ft | 8 kts | 140° |
| 2026-05-07 20:15 | 31.81461 | -106.37896 | 3945 ft | 0 kts | 140° |